createdAt,value
2016-05-31T00:00:12.265Z,41.22
2016-05-31T00:01:12.299Z,41.24
2016-05-31T00:02:12.317Z,41.24
2016-05-31T00:03:12.195Z,41.13
2016-05-31T00:04:12.385Z,41.13
2016-05-31T00:05:12.403Z,41.03
2016-05-31T00:06:12.438Z,41.51
2016-05-31T00:07:12.315Z,41.72
2016-05-31T00:08:12.505Z,41.89
2016-05-31T00:09:12.524Z,41.8
2016-05-31T00:10:12.542Z,41.8
2016-05-31T00:11:12.576Z,41.99
2016-05-31T00:12:12.610Z,41.71
2016-05-31T00:13:12.628Z,41.89
2016-05-31T00:14:12.662Z,42.09
2016-05-31T00:15:12.696Z,42.09
2016-05-31T00:16:12.715Z,42.09
2016-05-31T00:17:12.748Z,41.99
2016-05-31T00:18:12.781Z,42.28
2016-05-31T00:19:12.801Z,42.28
2016-05-31T00:20:12.819Z,42.28
2016-05-31T00:21:12.853Z,42.19
2016-05-31T00:22:12.886Z,42.28
2016-05-31T00:23:13.858Z,41.99
2016-05-31T00:24:12.938Z,42.19
2016-05-31T00:25:12.957Z,42.47
2016-05-31T00:26:12.991Z,42.28
2016-05-31T00:27:13.025Z,42.47
2016-05-31T00:28:13.043Z,42.38
2016-05-31T00:29:13.078Z,42.55
2016-05-31T00:30:12.955Z,42.57
2016-05-31T00:31:13.130Z,42.65
2016-05-31T00:32:13.147Z,42.55
2016-05-31T00:33:13.182Z,42.46
2016-05-31T00:34:13.216Z,42.55
2016-05-31T00:35:13.234Z,42.65
2016-05-31T00:36:13.268Z,42.36
2016-05-31T00:37:13.286Z,43.03
2016-05-31T00:38:13.179Z,42.16
2016-05-31T00:39:13.339Z,42.74
2016-05-31T00:40:13.372Z,42.74
2016-05-31T00:41:13.406Z,42.74
2016-05-31T00:42:13.424Z,42.65
2016-05-31T00:43:13.459Z,42.55
2016-05-31T00:44:13.477Z,42.84
2016-05-31T00:45:13.510Z,42.74
2016-05-31T00:46:13.545Z,43.03
2016-05-31T00:47:13.563Z,43.13
2016-05-31T00:48:13.598Z,43.23
2016-05-31T00:49:13.616Z,43.41
2016-05-31T00:50:13.649Z,43.61
2016-05-31T00:51:13.667Z,43.51
2016-05-31T00:52:13.702Z,43.41
2016-05-31T00:53:13.736Z,43.61
2016-05-31T00:54:13.598Z,43.23
2016-05-31T00:55:13.787Z,43.8
2016-05-31T00:56:13.650Z,43.3
2016-05-31T00:57:13.840Z,43.4
2016-05-31T00:58:13.858Z,43.9
2016-05-31T00:59:13.892Z,43.61
2016-05-31T01:00:13.911Z,43.78
2016-05-31T01:01:13.944Z,43.78
2016-05-31T01:02:13.978Z,43.3
2016-05-31T01:19:00.259Z,43.97
2016-05-31T01:20:00.120Z,43.78
2016-05-31T01:21:00.201Z,43.68
2016-05-31T01:22:00.345Z,43.88
2016-05-31T01:23:01.081Z,43.78
2016-05-31T01:24:00.398Z,43.68
2016-05-31T01:25:00.447Z,44.17
2016-05-31T01:26:00.434Z,44.07
2016-05-31T01:27:00.467Z,44.26
2016-05-31T01:28:00.501Z,44.26
2016-05-31T01:29:00.520Z,44.26
2016-05-31T01:30:00.554Z,44.17
2016-05-31T01:31:00.572Z,44.07
2016-05-31T01:32:00.591Z,44.35
2016-05-31T01:33:00.624Z,44.35
2016-05-31T01:34:00.659Z,44.35
2016-05-31T01:35:00.692Z,44.35
2016-05-31T01:36:00.710Z,44.26
2016-05-31T01:37:00.761Z,44.74
2016-05-31T01:38:01.716Z,44.65
2016-05-31T01:39:00.641Z,44.62
2016-05-31T01:40:00.815Z,44.65
2016-05-31T01:41:00.693Z,44.72
2016-05-31T01:42:00.867Z,44.82
2016-05-31T01:43:00.885Z,44.72
2016-05-31T01:44:00.919Z,44.91
2016-05-31T01:45:00.954Z,45.01
2016-05-31T01:46:00.971Z,44.82
2016-05-31T01:47:01.006Z,45.13
2016-05-31T01:48:01.024Z,44.91
2016-05-31T01:49:01.058Z,45.1
2016-05-31T01:50:01.076Z,45.01
2016-05-31T01:51:00.970Z,45.01
2016-05-31T01:52:01.129Z,45.01
2016-05-31T01:53:01.881Z,45.2
2016-05-31T01:54:01.196Z,45.29
2016-05-31T01:55:01.215Z,45.2
2016-05-31T01:56:01.249Z,45.2
2016-05-31T01:57:01.267Z,45.2
2016-05-31T01:58:01.286Z,45.29
2016-05-31T01:59:01.163Z,45.29
2016-05-31T02:00:01.353Z,45.39
2016-05-31T02:01:01.372Z,45.39
2016-05-31T02:02:01.390Z,45.29
2016-05-31T02:03:01.424Z,45.49
2016-05-31T02:04:01.458Z,45.49
2016-05-31T02:05:01.491Z,45.39
2016-05-31T02:06:01.511Z,45.59
2016-05-31T02:07:01.528Z,45.49
2016-05-31T02:08:01.562Z,45.49
2016-05-31T02:09:01.580Z,45.39
2016-05-31T02:10:01.614Z,45.49
2016-05-31T02:11:01.633Z,45.59
2016-05-31T02:12:01.667Z,45.59
2016-05-31T02:13:01.529Z,45.59
2016-05-31T02:14:01.719Z,45.59
2016-05-31T02:15:01.753Z,45.59
2016-05-31T02:16:01.771Z,45.56
2016-05-31T02:17:01.805Z,45.56
2016-05-31T02:18:01.824Z,45.78
2016-05-31T02:19:01.858Z,45.87
2016-05-31T02:20:01.720Z,45.78
2016-05-31T02:21:01.894Z,45.85
2016-05-31T02:22:01.928Z,45.76
2016-05-31T02:23:01.993Z,45.85
2016-05-31T02:24:01.981Z,45.76
2016-05-31T02:25:02.015Z,45.85
2016-05-31T02:26:02.033Z,45.85
2016-05-31T02:27:02.067Z,46.14
2016-05-31T02:28:02.085Z,45.95
2016-05-31T02:29:02.104Z,45.95
2016-05-31T02:30:02.137Z,45.95
2016-05-31T02:31:02.156Z,46.23
2016-05-31T02:32:02.189Z,46.04
2016-05-31T02:33:02.223Z,46.04
2016-05-31T02:34:02.258Z,46.23
2016-05-31T02:35:02.292Z,46.23
2016-05-31T02:36:02.294Z,46.14
2016-05-31T02:37:02.172Z,46.43
2016-05-31T02:38:02.346Z,46.43
2016-05-31T02:39:02.380Z,46.43
2016-05-31T02:40:02.399Z,46.43
2016-05-31T02:41:02.416Z,46.53
2016-05-31T02:42:02.450Z,46.33
2016-05-31T02:43:02.485Z,46.81
2016-05-31T02:44:02.503Z,46.53
2016-05-31T02:45:02.521Z,46.62
2016-05-31T02:46:02.555Z,47
2016-05-31T02:47:02.573Z,46.62
2016-05-31T02:48:02.623Z,46.81
2016-05-31T02:49:02.657Z,46.53
2016-05-31T02:50:02.660Z,46.53
2016-05-31T02:51:02.694Z,46.81
2016-05-31T02:52:02.712Z,46.91
2016-05-31T02:53:03.293Z,46.53
2016-05-31T02:54:02.764Z,47
2016-05-31T02:55:02.782Z,47
2016-05-31T02:56:02.817Z,46.43
2016-05-31T02:57:02.851Z,46.91
2016-05-31T02:58:02.868Z,46.91
2016-05-31T02:59:02.903Z,46.91
2016-05-31T03:00:02.920Z,46.81
2016-05-31T03:01:02.940Z,46.81
2016-05-31T03:02:02.973Z,47
2016-05-31T03:03:02.992Z,47.3
2016-05-31T03:04:02.869Z,47.3
2016-05-31T03:05:03.059Z,47.3
2016-05-31T03:06:03.078Z,47.08
2016-05-31T03:07:03.096Z,47.27
2016-05-31T03:08:03.131Z,47.2
2016-05-31T03:09:03.148Z,47.36
2016-05-31T03:10:03.183Z,47.39
2016-05-31T03:11:03.200Z,47.2
2016-05-31T03:12:03.234Z,47.36
2016-05-31T03:13:03.253Z,47.36
2016-05-31T03:14:03.130Z,47.36
2016-05-31T03:15:03.305Z,47.27
2016-05-31T03:16:03.339Z,47.3
2016-05-31T03:17:03.357Z,46.89
2016-05-31T03:18:03.376Z,46.98
2016-05-31T03:19:03.410Z,47.17
2016-05-31T03:20:03.443Z,47.17
2016-05-31T03:21:03.462Z,47.46
2016-05-31T03:22:03.480Z,47.56
2016-05-31T03:23:04.124Z,47.56
2016-05-31T03:24:03.532Z,47.46
2016-05-31T03:25:03.566Z,47.75
2016-05-31T03:26:03.585Z,47.66
2016-05-31T03:27:03.618Z,47.46
2016-05-31T03:28:03.636Z,47.08
2016-05-31T03:29:03.671Z,47.56
2016-05-31T03:30:03.689Z,47.46
2016-05-31T03:31:03.567Z,47.66
2016-05-31T03:32:03.742Z,47.36
2016-05-31T03:33:03.775Z,47.85
2016-05-31T03:34:03.794Z,47.85
2016-05-31T03:35:03.672Z,47.75
2016-05-31T03:36:03.846Z,47.66
2016-05-31T03:37:03.723Z,47.75
2016-05-31T03:38:03.945Z,47.75
2016-05-31T03:39:03.917Z,47.75
2016-05-31T03:40:03.950Z,47.75
2016-05-31T03:41:03.984Z,47.75
2016-05-31T03:42:04.002Z,47.75
2016-05-31T03:43:04.021Z,47.75
2016-05-31T03:44:04.055Z,47.66
2016-05-31T03:45:04.073Z,47.66
2016-05-31T03:46:04.123Z,47.94
2016-05-31T03:47:04.141Z,47.85
2016-05-31T03:48:04.002Z,47.85
2016-05-31T03:49:04.194Z,47.85
2016-05-31T03:50:04.212Z,48.33
2016-05-31T03:51:04.229Z,48.43
2016-05-31T03:52:04.264Z,48.23
2016-05-31T03:53:04.126Z,48.33
2016-05-31T03:54:04.316Z,48.13
2016-05-31T03:55:04.335Z,48.13
2016-05-31T03:56:04.368Z,48.13
2016-05-31T03:57:04.387Z,48.61
2016-05-31T03:58:04.405Z,48.61
2016-05-31T03:59:04.439Z,48.52
2016-05-31T04:00:04.457Z,47.94
2016-05-31T04:01:04.491Z,48.04
2016-05-31T04:02:04.354Z,48.43
2016-05-31T04:03:04.543Z,48.04
2016-05-31T04:04:04.561Z,48.33
2016-05-31T04:05:04.440Z,48.33
2016-05-31T04:06:04.614Z,48.33
2016-05-31T04:07:04.647Z,48.33
2016-05-31T04:08:04.791Z,48.23
2016-05-31T04:09:04.685Z,48.71
2016-05-31T04:10:04.719Z,48.52
2016-05-31T04:11:04.752Z,48.71
2016-05-31T04:12:04.787Z,48.52
2016-05-31T04:13:04.789Z,48.71
2016-05-31T04:14:04.838Z,48.33
2016-05-31T04:15:04.841Z,48.52
2016-05-31T04:16:04.875Z,48.33
2016-05-31T04:17:04.894Z,48.43
2016-05-31T04:18:04.927Z,48.61
2016-05-31T04:19:04.946Z,48.23
2016-05-31T04:20:04.824Z,48.52
2016-05-31T04:21:04.998Z,48.61
2016-05-31T04:22:05.048Z,48.52
2016-05-31T04:23:05.301Z,48.52
2016-05-31T04:24:05.069Z,48.52
2016-05-31T04:25:05.102Z,48.61
2016-05-31T04:26:05.121Z,48.52
2016-05-31T04:27:05.155Z,48.52
2016-05-31T04:28:05.173Z,48.61
2016-05-31T04:29:05.206Z,48.52
2016-05-31T04:30:05.225Z,48.52
2016-05-31T04:31:05.276Z,48.43
2016-05-31T04:32:05.278Z,48.52
2016-05-31T04:33:05.311Z,48.52
2016-05-31T04:34:05.331Z,48.43
2016-05-31T04:35:05.348Z,48.52
2016-05-31T04:36:05.381Z,48.43
2016-05-31T04:37:05.417Z,48.43
2016-05-31T04:38:05.434Z,48.52
2016-05-31T04:39:05.453Z,48.23
2016-05-31T04:40:05.486Z,48.33
2016-05-31T04:41:05.506Z,48.33
2016-05-31T04:42:05.539Z,48.52
2016-05-31T04:43:05.557Z,48.61
2016-05-31T04:44:05.591Z,48.52
2016-05-31T04:45:05.610Z,48.61
2016-05-31T04:46:05.644Z,48.52
2016-05-31T04:47:05.505Z,48.52
2016-05-31T04:48:05.696Z,48.43
2016-05-31T04:49:05.714Z,48.52
2016-05-31T04:50:05.732Z,48.64
2016-05-31T04:51:05.766Z,48.64
2016-05-31T04:52:05.800Z,48.35
2016-05-31T04:53:06.350Z,48.43
2016-05-31T04:54:05.837Z,48.45
2016-05-31T04:55:05.871Z,48.45
2016-05-31T04:56:05.889Z,48.83
2016-05-31T04:57:05.923Z,48.83
2016-05-31T04:58:05.941Z,48.35
2016-05-31T04:59:05.975Z,48.64
2016-05-31T05:00:05.994Z,48.64
2016-05-31T05:01:06.028Z,48.25
2016-05-31T05:02:06.045Z,48.54
2016-05-31T05:03:06.080Z,48.64
2016-05-31T05:04:05.942Z,48.64
2016-05-31T05:05:05.960Z,48.45
2016-05-31T05:06:06.150Z,48.45
2016-05-31T05:07:06.029Z,48.54
2016-05-31T05:08:06.203Z,48.35
2016-05-31T05:09:06.220Z,48.35
2016-05-31T05:10:06.255Z,48.45
2016-05-31T05:11:06.116Z,48.74
2016-05-31T05:12:06.308Z,48.45
2016-05-31T05:13:06.325Z,48.25
2016-05-31T05:14:06.219Z,48.64
2016-05-31T05:15:06.378Z,48.74
2016-05-31T05:16:06.411Z,48.93
2016-05-31T05:17:06.430Z,48.64
2016-05-31T05:18:06.448Z,49.02
2016-05-31T05:19:06.420Z,48.74
2016-05-31T05:20:06.579Z,49.02
2016-05-31T05:21:06.613Z,49.02
2016-05-31T05:22:06.630Z,49.51
2016-05-31T05:23:06.633Z,49.41
2016-05-31T05:24:06.605Z,49.41
2016-05-31T05:25:06.638Z,49.69
2016-05-31T05:26:06.657Z,49.41
2016-05-31T05:27:06.676Z,49.51
2016-05-31T05:28:06.710Z,49.41
2016-05-31T05:29:06.743Z,49.41
2016-05-31T05:30:06.606Z,49.51
2016-05-31T05:31:06.796Z,49.31
2016-05-31T05:32:06.814Z,49.41
2016-05-31T05:33:06.848Z,49.41
2016-05-31T05:34:06.867Z,49.51
2016-05-31T05:35:06.901Z,49.51
2016-05-31T05:36:06.762Z,49.51
2016-05-31T05:37:06.937Z,49.6
2016-05-31T05:38:07.533Z,49.51
2016-05-31T05:39:07.005Z,50.01
2016-05-31T05:40:07.023Z,49.79
2016-05-31T05:41:07.041Z,49.79
2016-05-31T05:42:07.076Z,49.79
2016-05-31T05:43:06.937Z,50.49
2016-05-31T05:44:06.972Z,50.08
2016-05-31T05:45:07.146Z,50.01
2016-05-31T05:46:07.180Z,50.2
2016-05-31T05:47:07.198Z,49.82
2016-05-31T05:48:07.232Z,49.91
2016-05-31T05:49:07.266Z,49.91
2016-05-31T05:50:07.268Z,49.91
2016-05-31T05:51:07.303Z,49.79
2016-05-31T05:52:07.336Z,49.82
2016-05-31T05:53:07.792Z,50.2
2016-05-31T05:54:07.374Z,49.82
2016-05-31T05:55:07.407Z,50.01
2016-05-31T05:56:07.285Z,50.2
2016-05-31T05:57:07.468Z,49.72
2016-05-31T05:58:07.513Z,50.1
2016-05-31T05:59:07.574Z,50.1
2016-05-31T06:00:07.618Z,49.91
2016-05-31T06:01:07.679Z,50.1
2016-05-31T06:02:07.718Z,50.01
2016-05-31T06:03:07.761Z,50.01
2016-05-31T06:04:07.789Z,50.01
2016-05-31T06:05:07.818Z,50.1
2016-05-31T06:06:07.861Z,49.91
2016-05-31T06:07:07.887Z,49.82
2016-05-31T06:08:08.049Z,50.59
2016-05-31T06:09:07.962Z,50.59
2016-05-31T06:10:07.984Z,50.3
2016-05-31T06:11:08.005Z,50.01
2016-05-31T06:12:08.057Z,50.49
2016-05-31T06:13:08.076Z,50.2
2016-05-31T06:14:08.096Z,50.2
2016-05-31T06:15:08.132Z,50.2
2016-05-31T06:16:08.166Z,49.91
2016-05-31T06:17:08.170Z,49.91
2016-05-31T06:18:08.204Z,49.84
2016-05-31T06:19:08.223Z,50.1
2016-05-31T06:20:08.257Z,50.23
2016-05-31T06:21:08.276Z,49.72
2016-05-31T06:22:08.311Z,50.2
2016-05-31T06:23:08.188Z,49.94
2016-05-31T06:24:08.362Z,49.91
2016-05-31T06:25:08.397Z,50.01
2016-05-31T06:26:08.415Z,49.84
2016-05-31T06:27:08.449Z,49.46
2016-05-31T06:28:08.467Z,49.84
2016-05-31T06:29:08.485Z,50.04
2016-05-31T06:30:08.519Z,49.84
2016-05-31T06:31:08.537Z,49.84
2016-05-31T06:32:08.587Z,49.84
2016-05-31T06:33:08.605Z,49.74
2016-05-31T06:34:08.640Z,49.55
2016-05-31T06:35:08.657Z,49.46
2016-05-31T06:36:08.676Z,49.94
2016-05-31T06:37:08.537Z,49.65
2016-05-31T06:38:09.010Z,49.65
2016-05-31T06:39:08.747Z,49.36
2016-05-31T06:40:08.780Z,49.55
2016-05-31T06:41:08.798Z,50.61
2016-05-31T06:42:08.833Z,49.94
2016-05-31T06:43:08.851Z,50.04
2016-05-31T06:44:08.885Z,50.13
2016-05-31T06:45:08.903Z,50.23
2016-05-31T06:46:08.936Z,50.04
2016-05-31T06:47:08.956Z,50.06
2016-05-31T06:48:08.989Z,49.74
2016-05-31T06:49:09.008Z,50.04
2016-05-31T06:50:09.027Z,50.06
2016-05-31T06:51:09.060Z,50.15
2016-05-31T06:52:09.078Z,50.25
2016-05-31T06:53:09.393Z,50.15
2016-05-31T06:54:09.146Z,49.96
2016-05-31T06:55:09.165Z,49.96
2016-05-31T06:56:09.199Z,50.06
2016-05-31T06:57:09.216Z,50.83
2016-05-31T06:58:09.251Z,50.25
2016-05-31T06:59:09.269Z,50.83
2016-05-31T07:00:09.304Z,50.93
2016-05-31T07:01:09.321Z,50.27
2016-05-31T07:02:09.355Z,50.18
2016-05-31T07:03:09.373Z,50.37
2016-05-31T07:04:09.454Z,50.27
2016-05-31T07:05:09.426Z,50.37
2016-05-31T07:06:09.444Z,50.47
2016-05-31T07:07:09.478Z,50.66
2016-05-31T07:08:09.528Z,50.47
2016-05-31T07:09:09.531Z,50.27
2016-05-31T07:10:09.548Z,50.37
2016-05-31T07:11:09.583Z,51.05
2016-05-31T07:12:09.616Z,50.98
2016-05-31T07:13:09.479Z,50.3
2016-05-31T07:14:09.669Z,50.49
2016-05-31T07:15:09.687Z,50.69
2016-05-31T07:16:09.721Z,50.01
2016-05-31T07:17:09.739Z,50.01
2016-05-31T07:18:09.772Z,50.3
2016-05-31T07:19:09.792Z,50.11
2016-05-31T07:20:09.841Z,50.01
2016-05-31T07:21:09.844Z,49.73
2016-05-31T07:22:09.877Z,49.65
2016-05-31T07:23:09.912Z,49.65
2016-05-31T07:24:09.930Z,49.55
2016-05-31T07:25:09.963Z,49.55
2016-05-31T07:26:09.982Z,49.65
2016-05-31T07:27:10.016Z,49.17
2016-05-31T07:28:10.035Z,49.1
2016-05-31T07:29:10.068Z,49.29
2016-05-31T07:30:10.087Z,48.81
2016-05-31T07:31:10.121Z,49.1
2016-05-31T07:32:09.983Z,48.81
2016-05-31T07:33:10.173Z,48.81
2016-05-31T07:34:10.207Z,48.81
2016-05-31T07:35:10.225Z,48.71
2016-05-31T07:36:10.243Z,48.54
2016-05-31T07:37:10.278Z,48.64
2016-05-31T07:38:10.312Z,48.35
2016-05-31T07:39:10.345Z,48.06
2016-05-31T07:40:10.348Z,48.06
2016-05-31T07:41:10.382Z,47.87
2016-05-31T07:42:10.416Z,47.48
2016-05-31T07:43:10.465Z,47.5
2016-05-31T07:44:10.467Z,47.41
2016-05-31T07:45:10.346Z,47.41
2016-05-31T07:46:10.521Z,47.22
2016-05-31T07:47:10.539Z,47.02
2016-05-31T07:48:10.416Z,46.64
2016-05-31T07:49:10.606Z,46.44
2016-05-31T07:50:10.625Z,46.66
2016-05-31T07:51:10.503Z,46.37
2016-05-31T07:52:10.677Z,46.47
2016-05-31T07:53:10.711Z,46.27
2016-05-31T07:54:10.729Z,46.47
2016-05-31T07:55:10.764Z,45.98
2016-05-31T07:56:10.797Z,46.2
2016-05-31T07:57:10.816Z,45.79
2016-05-31T07:58:10.849Z,45.62
2016-05-31T07:59:10.868Z,45.42
2016-05-31T08:00:10.902Z,45.62
2016-05-31T08:01:10.921Z,45.52
2016-05-31T08:02:10.954Z,45.33
2016-05-31T08:03:10.815Z,45.16
2016-05-31T08:04:11.007Z,45.16
2016-05-31T08:05:11.041Z,44.77
2016-05-31T08:06:11.059Z,44.77
2016-05-31T08:07:11.092Z,44.48
2016-05-31T08:08:11.548Z,44.5
2016-05-31T08:09:11.144Z,44.4
2016-05-31T08:10:11.195Z,44.31
2016-05-31T08:11:11.198Z,44.12
2016-05-31T08:12:11.247Z,43.63
2016-05-31T08:13:11.264Z,43.54
2016-05-31T08:14:11.299Z,43.75
2016-05-31T08:15:11.317Z,42.78
2016-05-31T08:16:11.336Z,42.88
2016-05-31T08:17:11.369Z,43.07
2016-05-31T08:18:11.388Z,42.49
2016-05-31T08:19:11.421Z,42.59
2016-05-31T08:20:11.299Z,42.8
2016-05-31T08:21:11.474Z,42.8
2016-05-31T08:22:11.445Z,42.8
2016-05-31T08:23:11.541Z,42.51
2016-05-31T08:24:11.560Z,42.13
2016-05-31T08:25:11.594Z,42.14
2016-05-31T08:26:11.785Z,41.37
2016-05-31T08:27:11.646Z,41.37
2016-05-31T08:28:11.743Z,41.27
2016-05-31T08:29:11.698Z,40.71
2016-05-31T08:30:11.733Z,40.52
2016-05-31T08:31:11.860Z,40.33
2016-05-31T08:32:11.785Z,40.61
2016-05-31T08:33:11.818Z,39.84
2016-05-31T08:34:11.852Z,39.84
2016-05-31T08:35:11.871Z,39.74
2016-05-31T08:36:11.748Z,39.86
2016-05-31T08:37:11.940Z,39.57
2016-05-31T08:38:12.707Z,39.47
2016-05-31T08:39:11.991Z,38.91
2016-05-31T08:40:12.025Z,38.6
2016-05-31T08:41:12.043Z,38.62
2016-05-31T08:42:12.078Z,38.52
2016-05-31T08:43:12.111Z,38.32
2016-05-31T08:44:12.129Z,37.84
2016-05-31T08:45:12.164Z,38.15
2016-05-31T08:46:12.338Z,37.96
2016-05-31T08:47:12.216Z,37.37
2016-05-31T08:48:12.265Z,36.99
2016-05-31T08:49:12.128Z,37.2
2016-05-31T08:50:12.317Z,37.01
2016-05-31T08:51:12.336Z,36.71
2016-05-31T08:52:12.385Z,36.32
2016-05-31T08:53:12.950Z,35.84
2016-05-31T08:54:12.422Z,36.22
2016-05-31T08:55:12.456Z,35.57
2016-05-31T08:56:12.490Z,35.66
2016-05-31T08:57:12.524Z,35.47
2016-05-31T08:58:12.542Z,35.66
2016-05-31T08:59:12.576Z,35.66
2016-05-31T09:00:12.610Z,35.27
2016-05-31T09:01:12.629Z,35.37
2016-05-31T09:02:12.506Z,34.9
2016-05-31T09:03:12.696Z,34.52
2016-05-31T09:04:12.715Z,34.9
2016-05-31T09:05:12.748Z,34.32
2016-05-31T09:06:12.782Z,34.14
2016-05-31T09:07:12.816Z,33.36
2016-05-31T09:08:12.694Z,33.36
2016-05-31T09:09:12.884Z,33.17
2016-05-31T09:10:12.903Z,33.36
2016-05-31T09:11:12.936Z,33.58
2016-05-31T09:12:12.970Z,33.38
2016-05-31T09:13:12.989Z,33.39
2016-05-31T09:14:13.101Z,33.01
2016-05-31T09:15:13.056Z,32.52
2016-05-31T09:16:12.919Z,32.81
2016-05-31T09:17:13.171Z,32.42
2016-05-31T09:18:13.143Z,32.15
2016-05-31T09:19:13.177Z,31.66
2016-05-31T09:20:13.195Z,31.66
2016-05-31T09:21:13.228Z,31.37
2016-05-31T09:22:13.264Z,31.28
2016-05-31T09:23:13.296Z,31.28
2016-05-31T09:24:13.316Z,30.8
2016-05-31T09:25:13.364Z,30.7
2016-05-31T09:26:13.477Z,31.01
2016-05-31T09:27:13.354Z,30.62
2016-05-31T09:28:13.452Z,30.81
2016-05-31T09:29:13.485Z,30.62
2016-05-31T09:30:13.363Z,30.62
2016-05-31T09:31:13.380Z,30.22
2016-05-31T09:32:13.713Z,29.95
2016-05-31T09:33:13.604Z,30.15
2016-05-31T09:34:13.483Z,29.66
2016-05-31T09:35:13.673Z,29.27
2016-05-31T09:36:13.690Z,29.07
2016-05-31T09:37:13.726Z,29.36
2016-05-31T09:38:13.775Z,29.46
2016-05-31T09:39:13.793Z,29.56
2016-05-31T09:40:13.827Z,29.36
2016-05-31T09:41:13.689Z,29.36
2016-05-31T09:42:13.895Z,29.56
2016-05-31T09:43:13.928Z,28.88
2016-05-31T09:44:13.790Z,29.28
2016-05-31T09:45:13.981Z,28.89
2016-05-31T09:46:14.015Z,29.28
2016-05-31T09:47:14.048Z,28.79
2016-05-31T09:48:14.067Z,28.59
2016-05-31T09:49:14.164Z,29.08
2016-05-31T09:50:14.323Z,28.59
2016-05-31T09:51:14.106Z,28.52
2016-05-31T09:52:14.328Z,28.52
2016-05-31T09:53:14.252Z,28.42
2016-05-31T09:54:14.271Z,28.32
2016-05-31T09:55:14.149Z,28.03
2016-05-31T09:56:14.323Z,28.33
2016-05-31T09:57:14.372Z,28.22
2016-05-31T09:58:14.407Z,27.84
2016-05-31T09:59:14.424Z,27.84
2016-05-31T10:00:14.366Z,27.84
2016-05-31T10:01:14.493Z,27.65
2016-05-31T10:02:14.527Z,27.45
2016-05-31T10:03:14.560Z,27.65
2016-05-31T10:04:14.594Z,27.45
2016-05-31T10:05:14.628Z,27.66
2016-05-31T10:06:14.663Z,27.37
2016-05-31T10:07:14.681Z,27.27
2016-05-31T10:08:14.730Z,27.27
2016-05-31T10:09:14.748Z,27.28
2016-05-31T10:10:14.783Z,27.19
2016-05-31T10:11:14.817Z,27.09
2016-05-31T10:12:14.788Z,27.09
2016-05-31T10:13:14.915Z,27.38
2016-05-31T10:14:14.918Z,27.38
2016-05-31T10:15:14.952Z,27.28
2016-05-31T10:16:14.362Z,27.19
2016-05-31T10:17:15.067Z,27.09
2016-05-31T10:18:15.054Z,27.28
2016-05-31T10:19:15.088Z,27.38
2016-05-31T10:20:15.123Z,27.29
2016-05-31T10:21:15.156Z,27.29
2016-05-31T10:22:15.189Z,27.39
2016-05-31T10:23:15.318Z,27.39
2016-05-31T10:24:15.367Z,27.39
2016-05-31T10:25:15.291Z,26.92
2016-05-31T10:26:15.403Z,26.53
2016-05-31T10:27:15.360Z,26.72
2016-05-31T10:28:15.238Z,26.34
2016-05-31T10:29:15.271Z,26.34
2016-05-31T10:30:15.461Z,26.05
2016-05-31T10:31:15.480Z,25.76
2016-05-31T10:32:15.373Z,25.38
2016-05-31T10:33:15.563Z,25.38
2016-05-31T10:34:15.582Z,25.18
2016-05-31T10:35:15.615Z,24.7
2016-05-31T10:36:15.649Z,24.7
2016-05-31T10:37:15.715Z,24.21
2016-05-31T10:38:16.686Z,24.21
2016-05-31T10:39:15.767Z,24.51
2016-05-31T10:40:15.785Z,24.41
2016-05-31T10:41:15.819Z,23.92
2016-05-31T10:42:15.868Z,23.92
2016-05-31T10:43:15.903Z,23.92
2016-05-31T10:44:15.921Z,23.92
2016-05-31T10:45:15.954Z,24.02
2016-05-31T10:46:16.004Z,23.82
2016-05-31T10:47:15.882Z,23.54
2016-05-31T10:48:16.072Z,23.93
2016-05-31T10:49:16.107Z,23.74
2016-05-31T10:50:16.140Z,23.93
2016-05-31T10:51:16.175Z,23.34
2016-05-31T10:52:16.208Z,23.83
2016-05-31T10:53:16.241Z,23.94
2016-05-31T10:54:16.276Z,23.25
2016-05-31T10:55:16.310Z,23.45
2016-05-31T10:56:16.344Z,22.96
2016-05-31T10:57:16.394Z,23.17
2016-05-31T10:58:16.411Z,23.07
2016-05-31T10:59:16.446Z,23.27
2016-05-31T11:00:16.480Z,23.07
2016-05-31T11:01:16.529Z,23.27
2016-05-31T11:02:16.563Z,23.27
2016-05-31T11:03:16.582Z,23.08
2016-05-31T11:04:16.615Z,22.77
2016-05-31T11:05:16.665Z,22.78
2016-05-31T11:06:16.699Z,22.3
2016-05-31T11:07:16.732Z,22.49
2016-05-31T11:08:16.611Z,22.39
2016-05-31T11:09:16.801Z,22.49
2016-05-31T11:10:16.834Z,22.2
2016-05-31T11:11:16.868Z,22.39
2016-05-31T11:12:16.902Z,22.39
2016-05-31T11:13:16.951Z,22.39
2016-05-31T11:14:16.987Z,22.39
2016-05-31T11:15:17.004Z,22.3
2016-05-31T11:16:17.054Z,22.3
2016-05-31T11:17:17.088Z,22.31
2016-05-31T11:18:17.122Z,22.7
2016-05-31T11:19:17.000Z,22.2
2016-05-31T11:20:17.205Z,21.81
2016-05-31T11:21:17.223Z,21.62
2016-05-31T11:22:17.258Z,21.53
2016-05-31T11:23:17.323Z,21.12
2016-05-31T11:24:17.325Z,21.22
2016-05-31T11:25:17.375Z,21.22
2016-05-31T11:26:17.409Z,21.22
2016-05-31T11:27:17.442Z,21.12
2016-05-31T11:28:17.492Z,21.33
2016-05-31T11:29:17.511Z,21.23
2016-05-31T11:30:17.560Z,21.23
2016-05-31T11:31:17.578Z,21.53
2016-05-31T11:32:17.627Z,20.65
2016-05-31T11:33:17.663Z,20.75
2016-05-31T11:34:17.696Z,21.15
2016-05-31T11:35:17.730Z,20.95
2016-05-31T11:36:17.763Z,20.26
2016-05-31T11:37:17.798Z,20.47
2016-05-31T11:38:17.690Z,20.27
2016-05-31T11:39:17.865Z,19.98
2016-05-31T11:40:17.744Z,19.88
2016-05-31T11:41:17.949Z,19.78
2016-05-31T11:42:17.982Z,19.68
2016-05-31T11:43:18.018Z,19.68
2016-05-31T11:44:18.067Z,19.69
2016-05-31T11:45:18.085Z,19.89
2016-05-31T11:46:18.135Z,19.98
2016-05-31T11:47:18.153Z,19.69
2016-05-31T11:48:18.202Z,19.5
2016-05-31T11:49:18.236Z,19.4
2016-05-31T11:50:18.270Z,19.31
2016-05-31T11:51:18.320Z,19.6
2016-05-31T11:52:18.385Z,19.32
2016-05-31T11:53:18.247Z,19.51
2016-05-31T11:54:18.437Z,19.32
2016-05-31T11:55:18.455Z,19.32
2016-05-31T11:56:18.333Z,18.73
2016-05-31T11:57:18.523Z,18.44
2016-05-31T11:58:18.573Z,18.44
2016-05-31T11:59:18.607Z,18.65
2016-05-31T12:00:18.656Z,18.46
2016-05-31T12:01:18.674Z,18.26
2016-05-31T12:02:18.708Z,18.26
2016-05-31T12:03:18.759Z,17.96
2016-05-31T12:04:18.792Z,17.76
2016-05-31T12:05:18.827Z,18.16
2016-05-31T12:06:18.860Z,17.77
2016-05-31T12:07:18.909Z,17.68
2016-05-31T12:08:18.975Z,17.68
2016-05-31T12:09:18.978Z,17.77
2016-05-31T12:10:19.012Z,17.39
2016-05-31T12:11:19.046Z,17.58
2016-05-31T12:12:18.923Z,17.49
2016-05-31T12:13:18.973Z,17.68
2016-05-31T12:14:19.163Z,17.29
2016-05-31T12:15:19.196Z,17.19
2016-05-31T12:16:19.231Z,16.99
2016-05-31T12:17:19.281Z,17.29
2016-05-31T12:18:19.314Z,16.88
2016-05-31T12:19:19.348Z,17.18
2016-05-31T12:20:19.382Z,17.18
2016-05-31T12:21:19.432Z,17.18
2016-05-31T12:22:19.466Z,17.08
2016-05-31T12:23:19.578Z,17.28
2016-05-31T12:24:19.533Z,17.27
2016-05-31T12:25:19.583Z,17.37
2016-05-31T12:26:19.601Z,17.37
2016-05-31T12:27:19.651Z,17.76
2016-05-31T12:28:19.685Z,17.17
2016-05-31T12:29:19.734Z,17.46
2016-05-31T12:30:19.753Z,17.27
2016-05-31T12:31:19.802Z,17.56
2016-05-31T12:32:19.852Z,17.36
2016-05-31T12:33:19.885Z,17.46
2016-05-31T12:34:19.919Z,17.56
2016-05-31T12:35:19.969Z,17.45
2016-05-31T12:36:19.832Z,17.45
2016-05-31T12:37:20.022Z,17.25
2016-05-31T12:38:20.665Z,17.64
2016-05-31T12:39:20.105Z,17.83
2016-05-31T12:40:20.138Z,17.74
2016-05-31T12:41:20.173Z,18.23
2016-05-31T12:42:20.207Z,18.04
2016-05-31T12:43:20.257Z,18.52
2016-05-31T12:44:20.134Z,18.42
2016-05-31T12:45:20.324Z,18.52
2016-05-31T12:46:20.373Z,18.32
2016-05-31T12:47:20.407Z,18.71
2016-05-31T12:48:20.443Z,18.42
2016-05-31T12:49:20.476Z,18.42
2016-05-31T12:50:20.510Z,18.42
2016-05-31T12:51:20.559Z,18.32
2016-05-31T12:52:20.609Z,18.23
2016-05-31T12:53:21.033Z,17.93
2016-05-31T12:54:20.676Z,17.83
2016-05-31T12:55:20.695Z,18.42
2016-05-31T12:56:20.589Z,18.42
2016-05-31T12:57:20.778Z,18.51
2016-05-31T12:58:20.812Z,18.41
2016-05-31T12:59:20.847Z,18.61
2016-05-31T13:00:20.896Z,18.41
2016-05-31T13:01:20.930Z,18.61
2016-05-31T13:02:20.964Z,18.6
2016-05-31T13:03:20.998Z,18.5
2016-05-31T13:04:21.032Z,18.7
2016-05-31T13:05:21.066Z,18.7
2016-05-31T13:06:21.115Z,18.3
2016-05-31T13:07:20.994Z,18.88
2016-05-31T13:08:21.199Z,18.88
2016-05-31T13:09:21.217Z,18.88
2016-05-31T13:10:21.266Z,18.98
2016-05-31T13:11:21.301Z,18.98